sensor_id;sensor_type;location;lat;lon;timestamp;P1;durP1;ratioP1;P2;durP2;ratioP2
21266;SDS011;10791;53.108;18.326;2023-03-26T00:02:17;6.63;;;4.00;;
21266;SDS011;10791;53.108;18.326;2023-03-26T00:07:20;7.40;;;3.70;;
21266;SDS011;10791;53.108;18.326;2023-03-26T00:12:24;8.53;;;5.17;;
21266;SDS011;10791;53.108;18.326;2023-03-26T00:17:28;9.00;;;5.10;;
21266;SDS011;10791;53.108;18.326;2023-03-26T00:22:31;9.40;;;5.03;;
21266;SDS011;10791;53.108;18.326;2023-03-26T00:27:34;7.17;;;4.70;;
21266;SDS011;10791;53.108;18.326;2023-03-26T00:32:38;7.03;;;3.80;;
21266;SDS011;10791;53.108;18.326;2023-03-26T00:37:41;6.27;;;3.47;;
21266;SDS011;10791;53.108;18.326;2023-03-26T00:42:47;7.40;;;4.13;;
21266;SDS011;10791;53.108;18.326;2023-03-26T00:47:50;6.03;;;4.17;;
21266;SDS011;10791;53.108;18.326;2023-03-26T00:52:54;7.60;;;4.07;;
21266;SDS011;10791;53.108;18.326;2023-03-26T00:57:57;9.20;;;4.60;;
21266;SDS011;10791;53.108;18.326;2023-03-26T01:03:01;8.43;;;4.60;;
21266;SDS011;10791;53.108;18.326;2023-03-26T01:08:15;9.43;;;4.13;;
21266;SDS011;10791;53.108;18.326;2023-03-26T01:13:31;6.50;;;4.57;;
21266;SDS011;10791;53.108;18.326;2023-03-26T01:18:39;6.97;;;4.30;;
21266;SDS011;10791;53.108;18.326;2023-03-26T01:23:46;5.63;;;3.80;;
21266;SDS011;10791;53.108;18.326;2023-03-26T01:28:53;5.20;;;3.17;;
21266;SDS011;10791;53.108;18.326;2023-03-26T01:34:06;6.30;;;3.90;;
21266;SDS011;10791;53.108;18.326;2023-03-26T01:44:58;6.53;;;3.90;;
21266;SDS011;10791;53.108;18.326;2023-03-26T01:50:09;7.77;;;4.03;;
21266;SDS011;10791;53.108;18.326;2023-03-26T01:55:13;6.67;;;3.30;;
21266;SDS011;10791;53.108;18.326;2023-03-26T02:05:40;6.27;;;3.83;;
21266;SDS011;10791;53.108;18.326;2023-03-26T02:10:55;6.27;;;4.20;;
21266;SDS011;10791;53.108;18.326;2023-03-26T02:16:01;7.23;;;4.33;;
21266;SDS011;10791;53.108;18.326;2023-03-26T02:26:22;6.03;;;3.97;;
21266;SDS011;10791;53.108;18.326;2023-03-26T02:31:26;5.33;;;3.40;;
21266;SDS011;10791;53.108;18.326;2023-03-26T02:36:30;4.17;;;1.93;;
21266;SDS011;10791;53.108;18.326;2023-03-26T02:41:33;3.90;;;2.30;;
21266;SDS011;10791;53.108;18.326;2023-03-26T02:46:37;2.97;;;1.73;;
21266;SDS011;10791;53.108;18.326;2023-03-26T02:51:40;4.00;;;1.30;;
21266;SDS011;10791;53.108;18.326;2023-03-26T02:56:43;2.43;;;1.20;;
21266;SDS011;10791;53.108;18.326;2023-03-26T03:01:47;2.10;;;0.90;;
21266;SDS011;10791;53.108;18.326;2023-03-26T03:06:50;3.10;;;1.20;;
21266;SDS011;10791;53.108;18.326;2023-03-26T03:11:58;2.47;;;1.27;;
21266;SDS011;10791;53.108;18.326;2023-03-26T03:17:02;1.70;;;1.10;;
21266;SDS011;10791;53.108;18.326;2023-03-26T03:22:05;2.27;;;1.50;;
21266;SDS011;10791;53.108;18.326;2023-03-26T03:27:08;2.77;;;1.57;;
21266;SDS011;10791;53.108;18.326;2023-03-26T03:32:12;2.83;;;1.90;;
21266;SDS011;10791;53.108;18.326;2023-03-26T03:37:17;3.47;;;1.90;;
21266;SDS011;10791;53.108;18.326;2023-03-26T03:42:21;3.63;;;1.73;;
21266;SDS011;10791;53.108;18.326;2023-03-26T03:47:24;3.17;;;2.07;;
21266;SDS011;10791;53.108;18.326;2023-03-26T03:52:27;4.03;;;2.30;;
21266;SDS011;10791;53.108;18.326;2023-03-26T03:57:31;2.70;;;1.80;;
21266;SDS011;10791;53.108;18.326;2023-03-26T04:02:34;2.13;;;1.60;;
21266;SDS011;10791;53.108;18.326;2023-03-26T04:07:38;4.47;;;1.83;;
21266;SDS011;10791;53.108;18.326;2023-03-26T04:12:41;3.67;;;1.97;;
21266;SDS011;10791;53.108;18.326;2023-03-26T04:17:45;3.07;;;1.67;;
21266;SDS011;10791;53.108;18.326;2023-03-26T04:22:48;3.13;;;1.70;;
21266;SDS011;10791;53.108;18.326;2023-03-26T04:27:52;5.13;;;2.20;;
21266;SDS011;10791;53.108;18.326;2023-03-26T04:33:00;7.27;;;2.50;;
21266;SDS011;10791;53.108;18.326;2023-03-26T04:38:08;3.40;;;2.20;;
21266;SDS011;10791;53.108;18.326;2023-03-26T04:43:13;4.37;;;2.13;;
21266;SDS011;10791;53.108;18.326;2023-03-26T04:48:19;3.00;;;2.03;;
21266;SDS011;10791;53.108;18.326;2023-03-26T04:53:23;5.17;;;2.43;;
21266;SDS011;10791;53.108;18.326;2023-03-26T04:58:26;5.13;;;2.53;;
21266;SDS011;10791;53.108;18.326;2023-03-26T05:03:34;5.37;;;2.57;;
21266;SDS011;10791;53.108;18.326;2023-03-26T05:08:40;4.10;;;3.60;;
21266;SDS011;10791;53.108;18.326;2023-03-26T05:13:43;4.23;;;2.50;;
21266;SDS011;10791;53.108;18.326;2023-03-26T05:18:48;3.90;;;2.80;;
21266;SDS011;10791;53.108;18.326;2023-03-26T05:23:52;4.97;;;2.77;;
21266;SDS011;10791;53.108;18.326;2023-03-26T05:28:56;4.33;;;2.03;;
21266;SDS011;10791;53.108;18.326;2023-03-26T05:34:00;3.73;;;2.40;;
21266;SDS011;10791;53.108;18.326;2023-03-26T05:39:04;4.17;;;2.93;;
21266;SDS011;10791;53.108;18.326;2023-03-26T05:44:07;2.97;;;2.37;;
21266;SDS011;10791;53.108;18.326;2023-03-26T05:49:11;4.90;;;2.67;;
21266;SDS011;10791;53.108;18.326;2023-03-26T05:54:15;4.23;;;2.57;;
21266;SDS011;10791;53.108;18.326;2023-03-26T05:59:18;3.30;;;2.33;;
21266;SDS011;10791;53.108;18.326;2023-03-26T06:04:21;5.10;;;2.87;;
21266;SDS011;10791;53.108;18.326;2023-03-26T06:09:25;3.87;;;3.00;;
21266;SDS011;10791;53.108;18.326;2023-03-26T06:14:28;5.93;;;3.50;;
21266;SDS011;10791;53.108;18.326;2023-03-26T06:19:32;6.07;;;3.90;;
21266;SDS011;10791;53.108;18.326;2023-03-26T06:24:35;4.77;;;3.10;;
21266;SDS011;10791;53.108;18.326;2023-03-26T06:29:42;4.77;;;3.00;;
21266;SDS011;10791;53.108;18.326;2023-03-26T06:34:45;4.30;;;2.87;;
21266;SDS011;10791;53.108;18.326;2023-03-26T06:39:49;6.03;;;3.13;;
21266;SDS011;10791;53.108;18.326;2023-03-26T06:44:52;6.07;;;3.93;;
21266;SDS011;10791;53.108;18.326;2023-03-26T06:49:55;5.13;;;3.00;;
21266;SDS011;10791;53.108;18.326;2023-03-26T06:54:59;4.60;;;3.33;;
21266;SDS011;10791;53.108;18.326;2023-03-26T07:00:03;4.47;;;2.97;;
21266;SDS011;10791;53.108;18.326;2023-03-26T07:05:07;3.40;;;2.07;;
21266;SDS011;10791;53.108;18.326;2023-03-26T07:10:11;3.00;;;1.83;;
21266;SDS011;10791;53.108;18.326;2023-03-26T07:15:14;2.43;;;1.30;;
21266;SDS011;10791;53.108;18.326;2023-03-26T07:20:19;2.60;;;1.10;;
21266;SDS011;10791;53.108;18.326;2023-03-26T07:25:23;2.17;;;1.40;;
21266;SDS011;10791;53.108;18.326;2023-03-26T07:35:41;2.50;;;1.33;;
21266;SDS011;10791;53.108;18.326;2023-03-26T07:46:16;2.70;;;0.93;;
21266;SDS011;10791;53.108;18.326;2023-03-26T07:51:26;1.87;;;1.10;;
21266;SDS011;10791;53.108;18.326;2023-03-26T07:56:36;2.63;;;1.20;;
21266;SDS011;10791;53.108;18.326;2023-03-26T08:07:35;2.87;;;1.10;;
21266;SDS011;10791;53.108;18.326;2023-03-26T08:13:13;2.23;;;1.30;;
21266;SDS011;10791;53.108;18.326;2023-03-26T08:23:49;3.27;;;1.20;;
21266;SDS011;10791;53.108;18.326;2023-03-26T08:34:53;2.93;;;1.20;;
21266;SDS011;10791;53.108;18.326;2023-03-26T08:39:59;2.70;;;1.40;;
21266;SDS011;10791;53.108;18.326;2023-03-26T09:17:26;1.53;;;0.90;;
21266;SDS011;10791;53.108;18.326;2023-03-26T09:28:16;2.53;;;1.03;;
21266;SDS011;10791;53.108;18.326;2023-03-26T09:33:40;5.50;;;2.37;;
21266;SDS011;10791;53.108;18.326;2023-03-26T09:38:57;4.07;;;1.77;;
21266;SDS011;10791;53.108;18.326;2023-03-26T10:00:17;3.53;;;1.70;;
21266;SDS011;10791;53.108;18.326;2023-03-26T10:05:57;2.27;;;1.50;;
21266;SDS011;10791;53.108;18.326;2023-03-26T10:11:43;3.43;;;1.23;;
21266;SDS011;10791;53.108;18.326;2023-03-26T10:55:30;4.77;;;1.93;;
21266;SDS011;10791;53.108;18.326;2023-03-26T11:01:11;3.17;;;1.50;;
21266;SDS011;10791;53.108;18.326;2023-03-26T11:17:03;2.60;;;1.53;;
21266;SDS011;10791;53.108;18.326;2023-03-26T11:22:22;1.13;;;0.47;;
21266;SDS011;10791;53.108;18.326;2023-03-26T11:33:04;1.13;;;0.80;;
21266;SDS011;10791;53.108;18.326;2023-03-26T11:43:28;2.30;;;0.97;;
21266;SDS011;10791;53.108;18.326;2023-03-26T11:48:38;4.10;;;1.50;;
21266;SDS011;10791;53.108;18.326;2023-03-26T11:53:46;1.53;;;1.00;;
21266;SDS011;10791;53.108;18.326;2023-03-26T11:59:03;2.30;;;1.20;;
21266;SDS011;10791;53.108;18.326;2023-03-26T12:04:13;2.10;;;1.33;;
21266;SDS011;10791;53.108;18.326;2023-03-26T12:09:18;2.40;;;1.27;;
21266;SDS011;10791;53.108;18.326;2023-03-26T12:27:43;0.63;;;0.40;;
21266;SDS011;10791;53.108;18.326;2023-03-26T12:32:50;1.93;;;0.60;;
21266;SDS011;10791;53.108;18.326;2023-03-26T12:49:08;2.43;;;1.30;;
21266;SDS011;10791;53.108;18.326;2023-03-26T12:59:56;2.53;;;1.47;;
21266;SDS011;10791;53.108;18.326;2023-03-26T13:16:26;2.87;;;1.27;;
21266;SDS011;10791;53.108;18.326;2023-03-26T13:21:55;2.13;;;1.57;;
21266;SDS011;10791;53.108;18.326;2023-03-26T13:59:28;2.10;;;1.00;;
21266;SDS011;10791;53.108;18.326;2023-03-26T14:04:40;3.50;;;1.17;;
21266;SDS011;10791;53.108;18.326;2023-03-26T14:10:07;1.60;;;0.97;;
21266;SDS011;10791;53.108;18.326;2023-03-26T14:15:20;1.93;;;1.10;;
21266;SDS011;10791;53.108;18.326;2023-03-26T14:48:25;3.17;;;1.33;;
21266;SDS011;10791;53.108;18.326;2023-03-26T14:53:37;2.70;;;1.20;;
21266;SDS011;10791;53.108;18.326;2023-03-26T15:43:15;3.33;;;1.20;;
21266;SDS011;10791;53.108;18.326;2023-03-26T15:54:23;1.80;;;1.10;;
21266;SDS011;10791;53.108;18.326;2023-03-26T16:05:01;2.37;;;1.00;;
21266;SDS011;10791;53.108;18.326;2023-03-26T16:09:55;4.57;;;1.57;;
21266;SDS011;10791;53.108;18.326;2023-03-26T16:15:25;2.60;;;1.33;;
21266;SDS011;10791;53.108;18.326;2023-03-26T16:20:48;2.10;;;1.27;;
21266;SDS011;10791;53.108;18.326;2023-03-26T16:36:42;2.37;;;1.07;;
21266;SDS011;10791;53.108;18.326;2023-03-26T17:03:41;4.57;;;2.30;;
21266;SDS011;10791;53.108;18.326;2023-03-26T17:19:38;2.97;;;1.90;;
21266;SDS011;10791;53.108;18.326;2023-03-26T17:24:52;3.63;;;1.90;;
21266;SDS011;10791;53.108;18.326;2023-03-26T17:35:35;5.97;;;2.80;;
21266;SDS011;10791;53.108;18.326;2023-03-26T17:40:54;6.20;;;3.10;;
21266;SDS011;10791;53.108;18.326;2023-03-26T17:46:11;10.43;;;4.30;;
21266;SDS011;10791;53.108;18.326;2023-03-26T17:51:51;7.03;;;4.00;;
21266;SDS011;10791;53.108;18.326;2023-03-26T17:57:05;11.27;;;5.70;;
21266;SDS011;10791;53.108;18.326;2023-03-26T18:02:19;10.17;;;4.50;;
21266;SDS011;10791;53.108;18.326;2023-03-26T18:13:50;4.97;;;3.00;;
21266;SDS011;10791;53.108;18.326;2023-03-26T18:18:50;5.30;;;2.77;;
21266;SDS011;10791;53.108;18.326;2023-03-26T18:24:07;8.77;;;4.30;;
21266;SDS011;10791;53.108;18.326;2023-03-26T18:34:29;11.10;;;5.43;;
21266;SDS011;10791;53.108;18.326;2023-03-26T18:39:39;9.37;;;6.27;;
21266;SDS011;10791;53.108;18.326;2023-03-26T18:44:47;12.40;;;6.23;;
21266;SDS011;10791;53.108;18.326;2023-03-26T18:50:04;18.27;;;7.73;;
21266;SDS011;10791;53.108;18.326;2023-03-26T18:55:11;15.23;;;7.40;;
21266;SDS011;10791;53.108;18.326;2023-03-26T19:00:22;27.03;;;11.60;;
21266;SDS011;10791;53.108;18.326;2023-03-26T19:05:45;38.13;;;16.97;;
21266;SDS011;10791;53.108;18.326;2023-03-26T19:10:52;23.57;;;12.47;;
21266;SDS011;10791;53.108;18.326;2023-03-26T19:16:00;11.53;;;6.13;;
21266;SDS011;10791;53.108;18.326;2023-03-26T19:21:11;8.77;;;5.13;;
21266;SDS011;10791;53.108;18.326;2023-03-26T19:26:19;10.20;;;4.77;;
21266;SDS011;10791;53.108;18.326;2023-03-26T19:31:27;9.80;;;4.23;;
21266;SDS011;10791;53.108;18.326;2023-03-26T19:36:54;8.13;;;3.50;;
21266;SDS011;10791;53.108;18.326;2023-03-26T19:42:04;8.97;;;3.73;;
21266;SDS011;10791;53.108;18.326;2023-03-26T19:58:27;7.40;;;3.53;;
21266;SDS011;10791;53.108;18.326;2023-03-26T20:03:36;11.57;;;3.73;;
21266;SDS011;10791;53.108;18.326;2023-03-26T20:08:46;7.33;;;3.57;;
21266;SDS011;10791;53.108;18.326;2023-03-26T20:13:56;5.80;;;2.90;;
21266;SDS011;10791;53.108;18.326;2023-03-26T20:19:01;9.17;;;3.00;;
21266;SDS011;10791;53.108;18.326;2023-03-26T20:24:16;8.47;;;4.10;;
21266;SDS011;10791;53.108;18.326;2023-03-26T20:29:28;9.50;;;3.10;;
21266;SDS011;10791;53.108;18.326;2023-03-26T20:34:34;9.47;;;2.57;;
21266;SDS011;10791;53.108;18.326;2023-03-26T20:39:39;10.23;;;2.60;;
21266;SDS011;10791;53.108;18.326;2023-03-26T20:44:43;5.73;;;2.63;;
21266;SDS011;10791;53.108;18.326;2023-03-26T20:49:47;15.80;;;3.33;;
21266;SDS011;10791;53.108;18.326;2023-03-26T20:54:51;10.27;;;2.77;;
21266;SDS011;10791;53.108;18.326;2023-03-26T20:59:54;11.63;;;2.47;;
21266;SDS011;10791;53.108;18.326;2023-03-26T21:04:59;9.10;;;2.57;;
21266;SDS011;10791;53.108;18.326;2023-03-26T21:10:03;5.87;;;2.40;;
21266;SDS011;10791;53.108;18.326;2023-03-26T21:15:09;8.10;;;2.50;;
21266;SDS011;10791;53.108;18.326;2023-03-26T21:20:24;9.63;;;2.47;;
21266;SDS011;10791;53.108;18.326;2023-03-26T21:30:58;10.77;;;3.13;;
21266;SDS011;10791;53.108;18.326;2023-03-26T21:36:01;11.77;;;3.17;;
21266;SDS011;10791;53.108;18.326;2023-03-26T21:41:06;9.23;;;3.60;;
21266;SDS011;10791;53.108;18.326;2023-03-26T21:46:09;7.67;;;2.90;;
21266;SDS011;10791;53.108;18.326;2023-03-26T21:51:13;7.87;;;2.67;;
21266;SDS011;10791;53.108;18.326;2023-03-26T22:12:08;10.73;;;4.10;;
21266;SDS011;10791;53.108;18.326;2023-03-26T22:17:12;18.93;;;5.90;;
21266;SDS011;10791;53.108;18.326;2023-03-26T22:22:15;16.40;;;6.30;;
21266;SDS011;10791;53.108;18.326;2023-03-26T22:27:18;28.10;;;11.23;;
21266;SDS011;10791;53.108;18.326;2023-03-26T22:32:22;18.63;;;7.17;;
21266;SDS011;10791;53.108;18.326;2023-03-26T22:37:34;16.63;;;5.57;;
21266;SDS011;10791;53.108;18.326;2023-03-26T22:42:38;15.00;;;4.57;;
21266;SDS011;10791;53.108;18.326;2023-03-26T22:47:42;13.23;;;5.33;;
21266;SDS011;10791;53.108;18.326;2023-03-26T22:52:46;17.80;;;4.83;;
21266;SDS011;10791;53.108;18.326;2023-03-26T22:57:50;15.87;;;5.03;;
21266;SDS011;10791;53.108;18.326;2023-03-26T23:02:54;12.07;;;4.97;;
21266;SDS011;10791;53.108;18.326;2023-03-26T23:08:02;16.63;;;5.17;;
21266;SDS011;10791;53.108;18.326;2023-03-26T23:13:05;12.47;;;4.53;;
21266;SDS011;10791;53.108;18.326;2023-03-26T23:18:09;9.50;;;4.90;;
21266;SDS011;10791;53.108;18.326;2023-03-26T23:23:13;9.43;;;3.70;;
21266;SDS011;10791;53.108;18.326;2023-03-26T23:28:18;12.93;;;4.13;;
21266;SDS011;10791;53.108;18.326;2023-03-26T23:33:24;12.50;;;4.57;;
21266;SDS011;10791;53.108;18.326;2023-03-26T23:38:31;13.97;;;3.97;;
21266;SDS011;10791;53.108;18.326;2023-03-26T23:43:46;11.73;;;4.97;;
21266;SDS011;10791;53.108;18.326;2023-03-26T23:48:57;15.63;;;4.23;;
21266;SDS011;10791;53.108;18.326;2023-03-26T23:54:07;9.67;;;3.53;;
21266;SDS011;10791;53.108;18.326;2023-03-26T23:59:10;10.00;;;3.93;;
